Bella Vista, AR (72715)

12:25 AM CDT on September 03, 2014 (GMT -0500)
Loch Lomond | Change Station
CLOSE
Current Station
Personal Weather Station
Location: Bella Vista, AR
Elevation: 1243 ft
Nearby Weather Stations

Elev 1243 ft 36.48 °N, 94.33 °W | Updated 24 minutes ago

Mostly Cloudy
Mostly Cloudy
70.6 °F
Feels Like 70.6 °F
N
0.0
Wind Variable Wind from WSW
Gusts 0.0 mph

Today
High -- | Low -- °F
--% Chance of Precip.
Yesterday
High -- | Low -- °F
Precip. -- in
6:50 AM 7:42 PM
First Quarter, 58% visible
Pressure 30.04 in
Visibility 10.0 miles
Clouds Mostly Cloudy 8000 ft
Dew Point 68 °F
Humidity 92%
Rainfall 0.00 in
Snow Depth Not available.
UV 0 out of 12
Pollen 7.10 out of 12
Air Quality Not available.
Flu Activity Not available.
METAR KVBT 030515Z AUTO 14005KT 10SM BKN080 21/20 A3004 RMK AO1

More Conditions Fewer Conditions

Pressure 30.04 in
Visibility 10.0 miles
Clouds Mostly Cloudy 8000 ft
Dew Point 68 °F
Humidity 92%
Rainfall 0.00 in
Snow Depth Not available.
UV 0 out of 12
Pollen 7.10 out of 12
Air Quality Not available.
Flu Activity Not available.
METAR KVBT 030515Z AUTO 14005KT 10SM BKN080 21/20 A3004 RMK AO1

More Conditions Fewer Conditions

10-Day Weather Forecast

Almanac

Astronomy

Sep. 03, 2014 Rise Set
Actual Time 6:50 AM CDT 7:42 PM CDT
Civil Twilight 6:23 AM CDT 8:08 PM CDT
Nautical Twilight 5:52 AM CDT 8:39 PM CDT
Astronomical Twilight 5:20 AM CDT 9:11 PM CDT
Moon 3:19 PM CDT 12:50 AM CDT
Length of Visible Light 13h 44m
Length of Day
12h 52m
Tomorrow will be 2m 14s shorter.
First Quarter, 58% of the Moon is Illuminated
Today
First Quarter
Sep 8
Full
Sep 15
Last Quarter
Sep 24
New
Oct 1
First Quarter

Today's Extremes

State Highs State Lows

Community

WunderPhotos

Upload Photos

1,749,877 photos uploaded!

Nearby

Snow Depth

Station Depth Elevation
No new snow has been reported.

Earthquake Activity

City Distance Mag. Time & Date
No recent earthquake activity has been reported nearby.
Minimum magnitude displayed is 2.5.

Coastal Water Temperatures

Place Temperature
No Stations Reporting

Nearby Weather Stations